createdAt,value
2023-04-03T00:01:27.136Z,1.22
2023-04-03T00:04:33.139Z,1.22
2023-04-03T00:07:36.214Z,1.17
2023-04-03T00:10:39.914Z,1.18
2023-04-03T00:13:44.903Z,1.11
2023-04-03T00:16:48.074Z,1.11
2023-04-03T00:19:51.111Z,1.11
2023-04-03T00:22:54.274Z,1.13
2023-04-03T00:25:58.076Z,1.11
2023-04-03T00:29:02.481Z,1.08
2023-04-03T00:32:05.845Z,1.07
2023-04-03T00:35:10.090Z,1.05
2023-04-03T00:38:13.312Z,1.00
2023-04-03T00:41:16.625Z,1.04
2023-04-03T00:44:25.036Z,0.98
2023-04-03T00:47:29.165Z,0.98
2023-04-03T00:50:32.761Z,0.96
2023-04-03T00:53:44.489Z,1.06
2023-04-03T00:56:47.554Z,1.04
2023-04-03T00:59:57.682Z,1.00
2023-04-03T01:03:01.189Z,0.98
2023-04-03T01:06:06.200Z,0.94
2023-04-03T01:09:09.564Z,0.89
2023-04-03T01:12:18.220Z,0.89
2023-04-03T01:15:27.330Z,0.87
2023-04-03T01:18:30.641Z,0.86
2023-04-03T01:22:08.340Z,0.83
2023-04-03T01:25:11.550Z,0.79
2023-04-03T01:28:17.886Z,0.79
2023-04-03T01:31:26.650Z,0.80
2023-04-03T01:34:33.557Z,0.74
2023-04-03T01:37:37.490Z,0.74
2023-04-03T01:40:40.616Z,0.70
2023-04-03T01:43:46.536Z,0.73
2023-04-03T01:46:49.858Z,0.69
2023-04-03T01:49:55.227Z,0.71
2023-04-03T01:52:58.667Z,0.69
2023-04-03T01:56:01.819Z,0.60
2023-04-03T01:59:05.517Z,0.66
2023-04-03T02:02:09.212Z,0.59
2023-04-03T02:05:16.928Z,0.57
2023-04-03T02:08:20.181Z,0.51
2023-04-03T02:11:24.605Z,0.53
2023-04-03T02:14:28.469Z,0.52
2023-04-03T02:17:31.846Z,0.48
2023-04-03T02:20:36.385Z,0.50
2023-04-03T02:23:40.718Z,0.38
2023-04-03T02:26:43.821Z,0.34
2023-04-03T02:29:46.823Z,0.31
2023-04-03T02:32:49.823Z,0.34
2023-04-03T02:35:56.294Z,0.29
2023-04-03T02:38:59.438Z,0.32
2023-04-03T02:42:02.594Z,0.34
2023-04-03T02:45:07.251Z,0.30
2023-04-03T02:48:10.795Z,0.28
2023-04-03T02:51:15.762Z,0.26
2023-04-03T02:54:18.885Z,0.24
2023-04-03T02:57:26.357Z,0.23
2023-04-03T03:00:29.465Z,0.21
2023-04-03T03:03:32.555Z,0.21
2023-04-03T03:06:37.683Z,0.15
2023-04-03T03:09:41.012Z,0.15
2023-04-03T03:12:43.984Z,0.12
2023-04-03T03:15:47.445Z,0.05
2023-04-03T03:18:50.643Z,0.03
2023-04-03T03:21:55.158Z,-0.03
2023-04-03T03:24:59.416Z,-0.07
2023-04-03T03:28:02.396Z,-0.10
2023-04-03T03:31:07.042Z,-0.05
2023-04-03T03:34:11.049Z,-0.05
2023-04-03T03:37:16.602Z,-0.11
2023-04-03T03:40:19.799Z,-0.15
2023-04-03T03:43:22.824Z,-0.17
2023-04-03T03:46:27.522Z,-0.21
2023-04-03T03:49:30.991Z,-0.19
2023-04-03T03:52:35.729Z,-0.21
2023-04-03T03:55:39.065Z,-0.17
2023-04-03T03:58:42.523Z,-0.22
2023-04-03T04:01:45.892Z,-0.25
2023-04-03T04:04:50.269Z,-0.25
2023-04-03T04:07:54.825Z,-0.25
2023-04-03T04:10:59.280Z,-0.27
2023-04-03T04:14:02.364Z,-0.30
2023-04-03T04:17:07.004Z,-0.28
2023-04-03T04:20:11.958Z,-0.28
2023-04-03T04:23:18.326Z,-0.30
2023-04-03T04:26:22.652Z,-0.36
2023-04-03T04:29:26.182Z,-0.40
2023-04-03T04:32:29.728Z,-0.39
2023-04-03T04:35:33.055Z,-0.38
2023-04-03T04:38:38.070Z,-0.36
2023-04-03T04:41:41.353Z,-0.38
2023-04-03T04:44:45.857Z,-0.36
2023-04-03T04:47:52.487Z,-0.39
2023-04-03T04:50:56.208Z,-0.34
2023-04-03T04:54:00.565Z,-0.40
2023-04-03T04:57:03.738Z,-0.40
2023-04-03T05:00:09.559Z,-0.40
2023-04-03T05:03:13.168Z,-0.41
2023-04-03T05:06:16.695Z,-0.40
2023-04-03T05:09:21.852Z,-0.40
2023-04-03T05:12:26.585Z,-0.39
2023-04-03T05:15:34.804Z,-0.34
2023-04-03T05:18:38.156Z,-0.31
2023-04-03T05:21:46.314Z,-0.29
2023-04-03T05:24:53.486Z,-0.23
2023-04-03T05:27:58.068Z,-0.22
2023-04-03T05:31:02.196Z,-0.16
2023-04-03T05:34:11.104Z,-0.16
2023-04-03T05:37:15.656Z,-0.09
2023-04-03T05:40:20.908Z,-0.05
2023-04-03T05:43:27.713Z,0.02
2023-04-03T05:46:31.958Z,0.07
2023-04-03T05:49:41.720Z,0.17
2023-04-03T05:52:49.004Z,0.26
2023-04-03T05:55:53.856Z,0.35
2023-04-03T05:58:57.912Z,0.47
2023-04-03T06:02:02.219Z,0.78
2023-04-03T06:05:06.771Z,0.85
2023-04-03T06:08:11.506Z,0.94
2023-04-03T06:11:15.978Z,0.92
2023-04-03T06:14:19.119Z,0.96
2023-04-03T06:17:22.174Z,0.98
2023-04-03T06:20:25.425Z,0.95
2023-04-03T06:23:30.279Z,1.00
2023-04-03T06:26:35.047Z,1.00
2023-04-03T06:29:38.088Z,1.05
2023-04-03T06:32:41.520Z,1.27
2023-04-03T06:35:44.600Z,1.39
2023-04-03T06:38:47.753Z,1.42
2023-04-03T06:41:53.071Z,1.53
2023-04-03T06:45:06.031Z,1.64
2023-04-03T06:48:09.949Z,1.54
2023-04-03T06:51:21.536Z,1.60
2023-04-03T06:54:24.691Z,1.73
2023-04-03T06:57:29.370Z,1.75
2023-04-03T07:00:32.934Z,1.82
2023-04-03T07:03:36.476Z,2.08
2023-04-03T07:06:39.480Z,2.03
2023-04-03T07:09:45.198Z,2.19
2023-04-03T07:12:49.710Z,2.20
2023-04-03T07:15:52.859Z,2.19
2023-04-03T07:18:56.976Z,2.38
2023-04-03T07:22:00.050Z,2.47
2023-04-03T07:25:03.464Z,2.53
2023-04-03T07:28:09.203Z,2.92
2023-04-03T07:31:14.503Z,2.76
2023-04-03T07:34:17.810Z,2.83
2023-04-03T07:37:21.632Z,2.89
2023-04-03T07:40:24.662Z,2.99
2023-04-03T07:43:29.297Z,2.88
2023-04-03T07:46:32.742Z,3.09
2023-04-03T07:49:39.001Z,3.17
2023-04-03T07:52:42.354Z,2.95
2023-04-03T07:55:47.888Z,3.05
2023-04-03T07:58:52.173Z,3.08
2023-04-03T08:01:55.130Z,3.10
2023-04-03T08:04:58.281Z,3.12
2023-04-03T08:08:02.063Z,3.62
2023-04-03T08:11:06.986Z,3.68
2023-04-03T08:14:16.351Z,3.57
2023-04-03T08:17:19.436Z,3.60
2023-04-03T08:20:22.724Z,3.80
2023-04-03T08:23:25.694Z,3.84
2023-04-03T08:26:28.642Z,3.84
2023-04-03T08:29:33.725Z,3.52
2023-04-03T08:32:37.862Z,3.43
2023-04-03T08:35:42.433Z,3.51
2023-04-03T08:38:46.032Z,3.57
2023-04-03T08:41:49.618Z,3.54
2023-04-03T08:45:01.597Z,3.41
2023-04-03T08:48:09.150Z,3.48
2023-04-03T08:51:17.486Z,3.33
2023-04-03T08:54:31.621Z,3.47
2023-04-03T08:57:38.564Z,3.59
2023-04-03T09:00:49.160Z,3.52
2023-04-03T09:03:53.439Z,3.55
2023-04-03T09:07:01.043Z,3.79
2023-04-03T09:10:05.235Z,3.86
2023-04-03T09:13:14.291Z,3.84
2023-04-03T09:16:34.821Z,4.40
2023-04-03T09:19:43.945Z,4.25
2023-04-03T09:22:52.231Z,4.75
2023-04-03T09:26:06.129Z,4.71
2023-04-03T09:29:10.926Z,4.71
2023-04-03T09:32:28.498Z,4.69
2023-04-03T09:35:44.886Z,5.21
2023-04-03T09:39:06.682Z,5.14
2023-04-03T09:42:22.881Z,5.04
2023-04-03T09:45:29.374Z,4.87
2023-04-03T09:48:35.502Z,5.12
2023-04-03T09:51:39.857Z,5.10
2023-04-03T09:54:42.888Z,4.98
2023-04-03T09:57:50.625Z,4.98
2023-04-03T10:01:01.675Z,4.77
2023-04-03T10:04:11.751Z,4.85
2023-04-03T10:07:36.769Z,5.17
2023-04-03T10:10:41.308Z,5.12
2023-04-03T10:13:57.490Z,5.13
2023-04-03T10:17:15.313Z,4.99
2023-04-03T10:20:32.697Z,5.03
2023-04-03T10:23:43.844Z,4.95
2023-04-03T10:26:55.250Z,5.10
2023-04-03T10:30:06.438Z,5.15
2023-04-03T10:33:27.588Z,5.26
2023-04-03T10:36:41.225Z,4.95
2023-04-03T10:39:56.166Z,4.89
2023-04-03T10:43:08.667Z,5.04
2023-04-03T10:46:17.585Z,4.88
2023-04-03T10:49:34.730Z,4.95
2023-04-03T10:52:47.546Z,4.88
2023-04-03T10:55:56.415Z,5.06
2023-04-03T10:59:04.789Z,5.20
2023-04-03T11:02:16.547Z,5.09
2023-04-03T11:05:30.823Z,4.82
2023-04-03T11:08:41.389Z,4.84
2023-04-03T11:11:46.545Z,4.96
2023-04-03T11:14:51.875Z,5.03
2023-04-03T11:18:00.522Z,5.15
2023-04-03T11:21:10.152Z,5.24
2023-04-03T11:24:23.807Z,5.34
2023-04-03T11:27:31.760Z,5.29
2023-04-03T11:30:41.637Z,5.16
2023-04-03T11:33:55.496Z,5.32
2023-04-03T11:37:01.536Z,4.96
2023-04-03T11:40:19.401Z,4.99
2023-04-03T11:43:30.273Z,5.03
2023-04-03T11:46:57.214Z,5.08
2023-04-03T11:50:03.762Z,5.15
2023-04-03T11:53:33.433Z,5.37
2023-04-03T11:56:37.860Z,5.25
2023-04-03T11:59:41.063Z,5.15
2023-04-03T12:02:53.634Z,5.06
2023-04-03T12:06:37.822Z,5.10
2023-04-03T12:10:31.664Z,5.24
2023-04-03T12:13:37.791Z,5.24
2023-04-03T12:16:48.228Z,5.25
2023-04-03T12:19:51.893Z,5.53
2023-04-03T12:23:10.161Z,5.72
2023-04-03T12:26:23.932Z,5.79
2023-04-03T12:29:36.119Z,5.81
2023-04-03T12:33:22.513Z,5.64
2023-04-03T12:36:35.887Z,5.87
2023-04-03T12:39:55.431Z,6.55
2023-04-03T12:43:18.346Z,6.51
2023-04-03T12:46:38.352Z,5.82
2023-04-03T12:49:46.102Z,5.55
2023-04-03T12:52:58.216Z,5.42
2023-04-03T12:56:23.174Z,5.45
2023-04-03T12:59:28.671Z,5.57
2023-04-03T13:02:35.517Z,5.96
2023-04-03T13:05:38.995Z,6.05
2023-04-03T13:08:52.052Z,5.89
2023-04-03T13:12:01.374Z,5.84
2023-04-03T13:15:16.095Z,5.89
2023-04-03T13:18:41.973Z,5.87
2023-04-03T13:21:46.378Z,5.81
2023-04-03T13:24:54.610Z,5.74
2023-04-03T13:31:17.950Z,5.55
2023-04-03T13:34:24.455Z,5.22
2023-04-03T13:37:31.177Z,5.08
2023-04-03T13:40:46.934Z,5.12
2023-04-03T13:43:53.634Z,5.08
2023-04-03T13:47:03.650Z,5.17
2023-04-03T13:50:19.055Z,5.27
2023-04-03T13:53:22.773Z,5.21
2023-04-03T13:56:33.296Z,5.31
2023-04-03T13:59:37.892Z,5.29
2023-04-03T14:02:41.804Z,5.25
2023-04-03T14:05:46.644Z,5.32
2023-04-03T14:08:50.776Z,5.40
2023-04-03T14:11:57.757Z,5.84
2023-04-03T14:15:03.194Z,5.98
2023-04-03T14:18:07.864Z,6.18
2023-04-03T14:21:14.152Z,6.26
2023-04-03T14:24:17.544Z,5.95
2023-04-03T14:27:23.832Z,6.54
2023-04-03T14:30:30.668Z,7.23
2023-04-03T14:33:37.549Z,7.20
2023-04-03T14:36:45.175Z,6.67
2023-04-03T14:39:48.843Z,6.36
2023-04-03T14:42:52.351Z,6.10
2023-04-03T14:45:55.758Z,5.84
2023-04-03T14:48:59.600Z,6.00
2023-04-03T14:52:03.986Z,5.99
2023-04-03T14:55:08.952Z,5.75
2023-04-03T14:58:17.097Z,5.54
2023-04-03T15:01:20.434Z,5.46
2023-04-03T15:04:23.701Z,5.23
2023-04-03T15:07:31.098Z,5.32
2023-04-03T15:10:35.416Z,5.26
2023-04-03T15:13:38.946Z,5.21
2023-04-03T15:16:42.096Z,5.13
2023-04-03T15:19:45.796Z,5.20
2023-04-03T15:22:51.045Z,5.16
2023-04-03T15:25:55.668Z,5.05
2023-04-03T15:28:58.798Z,4.93
2023-04-03T15:32:02.037Z,4.78
2023-04-03T15:35:07.058Z,4.73
2023-04-03T15:38:12.309Z,4.75
2023-04-03T15:41:15.477Z,4.79
2023-04-03T15:44:18.576Z,4.76
2023-04-03T15:47:21.825Z,4.78
2023-04-03T16:07:29.308Z,4.55
2023-04-03T16:10:32.465Z,4.57
2023-04-03T16:13:36.144Z,4.65
2023-04-03T16:16:39.701Z,4.73
2023-04-03T16:19:43.060Z,4.86
2023-04-03T16:22:47.870Z,5.02
2023-04-03T16:25:51.279Z,4.95
2023-04-03T16:28:54.914Z,4.87
2023-04-03T16:31:59.037Z,4.78
2023-04-03T16:38:07.301Z,4.90
2023-04-03T16:41:10.811Z,4.73
2023-04-03T16:44:14.636Z,4.65
2023-04-03T16:47:20.044Z,4.56
2023-04-03T16:50:23.168Z,4.56
2023-04-03T16:53:28.669Z,4.51
2023-04-03T16:56:31.875Z,4.48
2023-04-03T16:59:35.272Z,4.47
2023-04-03T17:02:38.573Z,4.44
2023-04-03T17:05:41.833Z,4.34
2023-04-03T17:08:48.708Z,4.31
2023-04-03T17:12:03.651Z,4.32
2023-04-03T17:15:08.330Z,4.37
2023-04-03T17:18:11.387Z,4.33
2023-04-03T17:21:29.386Z,4.34
2023-04-03T17:24:41.488Z,4.39
2023-04-03T17:27:44.616Z,4.30
2023-04-03T17:30:47.582Z,4.33
2023-04-03T17:33:50.582Z,4.30
2023-04-03T17:36:53.877Z,4.26
2023-04-03T17:39:58.158Z,4.23
2023-04-03T17:43:01.310Z,4.19
2023-04-03T17:46:06.558Z,4.14
2023-04-03T17:49:10.700Z,4.17
2023-04-03T17:52:13.702Z,4.15
2023-04-03T17:55:18.708Z,4.07
2023-04-03T17:58:21.984Z,3.99
2023-04-03T18:01:28.324Z,3.99
2023-04-03T18:04:31.914Z,4.00
2023-04-03T18:07:34.900Z,3.91
2023-04-03T18:10:39.336Z,3.95
2023-04-03T18:13:43.584Z,3.95
2023-04-03T18:16:46.823Z,3.85
2023-04-03T18:19:51.583Z,3.81
2023-04-03T18:22:54.663Z,3.77
2023-04-03T18:26:01.923Z,3.68
2023-04-03T18:29:07.394Z,3.65
2023-04-03T18:32:15.193Z,3.63
2023-04-03T18:35:18.520Z,3.62
2023-04-03T18:38:21.675Z,3.55
2023-04-03T18:41:30.207Z,3.51
2023-04-03T18:44:34.868Z,3.47
2023-04-03T18:47:38.611Z,3.47
2023-04-03T18:50:42.008Z,3.42
2023-04-03T18:53:48.057Z,3.36
2023-04-03T18:56:52.370Z,3.32
2023-04-03T18:59:55.431Z,3.28
2023-04-03T19:02:58.855Z,3.27
2023-04-03T19:06:03.472Z,3.26
2023-04-03T19:09:07.840Z,3.23
2023-04-03T19:12:12.215Z,3.23
2023-04-03T19:15:16.391Z,3.23
2023-04-03T19:18:19.477Z,3.22
2023-04-03T19:21:22.526Z,3.20
2023-04-03T19:24:25.838Z,3.21
2023-04-03T19:27:30.631Z,3.20
2023-04-03T19:30:33.619Z,3.17
2023-04-03T19:33:36.923Z,3.15
2023-04-03T19:36:41.818Z,3.16
2023-04-03T19:39:44.966Z,3.13
2023-04-03T19:42:49.300Z,3.18
2023-04-03T19:45:53.434Z,3.18
2023-04-03T19:48:56.917Z,3.21
2023-04-03T19:51:59.986Z,3.09
2023-04-03T19:55:03.072Z,3.09
2023-04-03T19:58:07.808Z,3.13
2023-04-03T20:01:11.392Z,3.08
2023-04-03T20:04:14.491Z,3.01
2023-04-03T20:07:17.887Z,2.96
2023-04-03T20:10:21.139Z,2.90
2023-04-03T20:13:40.646Z,2.93
2023-04-03T20:16:43.967Z,2.88
2023-04-03T20:19:46.978Z,2.80
2023-04-03T20:22:53.853Z,2.75
2023-04-03T20:26:09.311Z,2.72
2023-04-03T20:29:16.461Z,2.68
2023-04-03T20:32:21.523Z,2.62
2023-04-03T20:35:24.976Z,2.66
2023-04-03T20:38:28.033Z,2.63
2023-04-03T20:41:31.878Z,2.60
2023-04-03T20:44:36.891Z,2.54
2023-04-03T20:47:40.170Z,2.53
2023-04-03T20:50:43.467Z,2.49
2023-04-03T20:53:47.506Z,2.46
2023-04-03T20:56:51.362Z,2.49
2023-04-03T20:59:55.645Z,2.43
2023-04-03T21:02:59.619Z,2.42
2023-04-03T21:06:03.871Z,2.43
2023-04-03T21:10:03.528Z,2.45
2023-04-03T21:14:03.903Z,2.38
2023-04-03T21:17:06.941Z,2.43
2023-04-03T21:20:11.813Z,2.38
2023-04-03T21:23:15.714Z,2.34
2023-04-03T21:26:19.422Z,2.25
2023-04-03T21:29:22.492Z,2.21
2023-04-03T21:32:27.931Z,2.16
2023-04-03T21:35:32.269Z,2.18
2023-04-03T21:38:36.087Z,2.07
2023-04-03T21:41:39.838Z,1.99
2023-04-03T21:44:42.992Z,1.91
2023-04-03T21:47:46.104Z,1.92
2023-04-03T21:50:52.340Z,1.81
2023-04-03T21:53:56.361Z,1.70
2023-04-03T21:56:59.293Z,1.70
2023-04-03T22:00:02.330Z,1.58
2023-04-03T22:03:10.519Z,1.53
2023-04-03T22:06:17.425Z,1.48
2023-04-03T22:09:20.418Z,1.47
2023-04-03T22:12:24.268Z,1.43
2023-04-03T22:15:27.986Z,1.39
2023-04-03T22:18:31.599Z,1.36
2023-04-03T22:21:36.516Z,1.27
2023-04-03T22:24:40.080Z,1.22
2023-04-03T22:27:43.797Z,1.18
2023-04-03T22:30:46.953Z,1.21
2023-04-03T22:33:50.200Z,1.13
2023-04-03T22:36:54.523Z,1.07
2023-04-03T22:39:57.782Z,1.07
2023-04-03T22:43:01.145Z,1.07
2023-04-03T22:46:06.597Z,1.03
2023-04-03T22:49:12.499Z,1.02
2023-04-03T22:52:18.028Z,0.95
2023-04-03T22:55:24.980Z,0.88
2023-04-03T22:58:29.116Z,0.89
2023-04-03T23:01:32.659Z,0.86
2023-04-03T23:04:36.389Z,0.83
2023-04-03T23:07:40.770Z,0.76
2023-04-03T23:10:43.750Z,0.75
2023-04-03T23:13:46.758Z,0.77
2023-04-03T23:16:49.816Z,0.72
2023-04-03T23:19:52.897Z,0.65
2023-04-03T23:22:57.512Z,0.64
2023-04-03T23:26:02.545Z,0.61
2023-04-03T23:29:06.103Z,0.57
2023-04-03T23:32:09.233Z,0.57
2023-04-03T23:35:12.360Z,0.50
2023-04-03T23:38:17.591Z,0.51
2023-04-03T23:41:22.088Z,0.53
2023-04-03T23:44:25.531Z,0.50
2023-04-03T23:47:28.699Z,0.50
2023-04-03T23:50:33.328Z,0.49
2023-04-03T23:53:37.776Z,0.42
2023-04-03T23:56:40.784Z,0.48
2023-04-03T23:59:43.851Z,0.40
